Time;durP1;ratioP1;P1;durP2;ratioP2;P2;SDS_P1;SDS_P2;PMS_P1;PMS_P2;Temp;Humidity;BMP_temperature;BMP_pressure;BME280_temperature;BME280_humidity;BME280_pressure;Samples;Min_cycle;Max_cycle;Signal;HPM_P1;HPM_P2
2023/12/10 00:40:24;;;;;;;81.12;41.68;;;;;;;0.05;100.00;99675.53;1804881;75;960478;-51
2023/12/10 00:42:58;;;;;;;78.67;38.92;;;;;;;-0.05;100.00;99674.91;1818200;78;25897;-51
2023/12/10 00:45:25;;;;;;;81.60;39.30;;;;;;;-0.09;100.00;99667.16;1800268;78;27508;-51
2023/12/10 00:47:51;;;;;;;72.82;36.53;;;;;;;-0.15;100.00;99670.02;1780266;78;25653;-55
2023/12/10 00:50:18;;;;;;;85.83;39.67;;;;;;;-0.17;100.00;99673.47;1783623;79;25795;-51
2023/12/10 00:52:46;;;;;;;83.97;42.20;;;;;;;-0.16;100.00;99663.11;1783112;78;26064;-51
2023/12/10 00:55:14;;;;;;;76.12;37.15;;;;;;;-0.18;100.00;99669.22;1788896;78;25711;-51
2023/12/10 00:57:41;;;;;;;80.03;37.45;;;;;;;-0.21;100.00;99675.29;1801359;78;28148;-52
2023/12/10 01:00:10;;;;;;;86.02;38.73;;;;;;;-0.25;100.00;99675.53;1792275;78;25688;-51
2023/12/10 01:02:37;;;;;;;76.00;37.13;;;;;;;-0.27;100.00;99676.31;1787774;79;25463;-55
2023/12/10 01:05:06;;;;;;;74.90;36.83;;;;;;;-0.30;100.00;99682.67;1782836;78;25475;-52
2023/12/10 01:07:32;;;;;;;73.70;35.10;;;;;;;-0.32;100.00;99684.75;1783403;78;25780;-53
2023/12/10 01:09:59;;;;;;;76.33;36.65;;;;;;;-0.35;100.00;99679.42;1795694;78;27494;-55
2023/12/10 01:12:26;;;;;;;71.82;36.28;;;;;;;-0.39;100.00;99683.66;1778326;78;25474;-55
2023/12/10 01:14:53;;;;;;;67.40;34.18;;;;;;;-0.40;100.00;99683.36;1782168;78;25846;-55
2023/12/10 01:17:20;;;;;;;71.70;34.53;;;;;;;-0.43;100.00;99685.98;1783019;78;25808;-55
2023/12/10 01:19:47;;;;;;;70.17;33.02;;;;;;;-0.43;100.00;99683.86;1782673;78;25404;-53
2023/12/10 01:22:15;;;;;;;73.02;33.45;;;;;;;-0.45;100.00;99684.11;1790927;78;27455;-55
2023/12/10 01:24:45;;;;;;;73.80;36.60;;;;;;;-0.46;100.00;99689.16;1789533;79;25818;-55
2023/12/10 01:27:11;;;;;;;72.37;36.57;;;;;;;-0.47;100.00;99693.39;1777857;79;25392;-57
2023/12/10 01:29:37;;;;;;;66.05;33.28;;;;;;;-0.48;100.00;99695.23;1781324;78;25553;-54
2023/12/10 01:32:06;;;;;;;66.67;31.75;;;;;;;-0.49;100.00;99695.51;1785834;78;25789;-52
2023/12/10 01:34:32;;;;;;;71.67;34.88;;;;;;;-0.50;100.00;99692.03;1782574;79;27474;-52
2023/12/10 01:36:59;;;;;;;70.15;33.73;;;;;;;-0.52;100.00;99691.48;1787148;79;25570;-53
2023/12/10 01:39:26;;;;;;;65.35;32.25;;;;;;;-0.53;100.00;99684.55;1790704;78;25453;-55
2023/12/10 01:41:52;;;;;;;65.22;32.95;;;;;;;-0.53;100.00;99687.74;1790808;78;25470;-52
2023/12/10 01:44:19;;;;;;;65.55;32.30;;;;;;;-0.55;100.00;99687.20;1778228;78;25477;-52
2023/12/10 01:46:46;;;;;;;71.82;33.40;;;;;;;-0.57;100.00;99682.13;1777365;79;27436;-52
2023/12/10 01:49:15;;;;;;;73.22;33.53;;;;;;;-0.57;100.00;99680.80;1782626;78;25827;-52
2023/12/10 01:51:44;;;;;;;72.82;33.90;;;;;;;-0.58;100.00;99677.86;1782618;79;25478;-53
2023/12/10 01:54:18;;;;;;;65.22;33.18;;;;;;;-0.59;100.00;99681.58;1783678;78;25516;-51
2023/12/10 01:56:47;;;;;;;67.80;32.35;;;;;;;-0.61;100.00;99684.48;1784701;79;25451;-51
2023/12/10 01:59:14;;;;;;;71.12;34.48;;;;;;;-0.61;100.00;99688.47;1781546;78;28145;-55
2023/12/10 02:01:41;;;;;;;64.80;32.00;;;;;;;-0.60;100.00;99682.09;1783335;79;25538;-52
2023/12/10 02:04:08;;;;;;;62.10;30.65;;;;;;;-0.60;100.00;99681.30;1776839;78;25648;-53
2023/12/10 02:06:35;;;;;;;68.80;32.90;;;;;;;-0.62;100.00;99680.22;1791604;78;25960;-52
2023/12/10 02:09:09;;;;;;;60.50;30.95;;;;;;;-0.62;100.00;99678.09;1791094;78;25540;-54
2023/12/10 02:11:31;;;;;;;61.88;31.40;;;;;;;-0.64;100.00;99683.66;1781381;79;27575;-54
2023/12/10 02:13:58;;;;;;;66.28;30.55;;;;;;;-0.66;100.00;99685.77;1777969;78;25594;-54
2023/12/10 02:16:25;;;;;;;55.03;28.77;;;;;;;-0.64;100.00;99694.81;1786774;78;25553;-54
2023/12/10 02:18:52;;;;;;;66.40;31.25;;;;;;;-0.63;100.00;99689.76;1784609;78;26195;-53
2023/12/10 02:21:18;;;;;;;65.37;31.73;;;;;;;-0.64;100.00;99684.98;1778777;79;25525;-52
2023/12/10 02:24:05;;;;;;;61.10;28.87;;;;;;;-0.63;100.00;99689.25;1779156;78;27413;-52
2023/12/10 02:26:32;;;;;;;57.88;28.62;;;;;;;-0.63;100.00;99699.05;1785885;79;25907;-52
2023/12/10 02:28:59;;;;;;;63.42;28.15;;;;;;;-0.63;100.00;99694.56;1781258;79;25823;-55
2023/12/10 02:31:27;;;;;;;57.10;27.50;;;;;;;-0.67;100.00;99693.44;1778590;78;25393;-55
2023/12/10 02:33:53;;;;;;;60.65;29.67;;;;;;;-0.67;100.00;99687.34;1782638;78;25425;-54
2023/12/10 02:36:20;;;;;;;65.00;29.12;;;;;;;-0.67;100.00;99676.17;1782733;79;27489;-53
2023/12/10 02:38:49;;;;;;;60.25;29.18;;;;;;;-0.67;100.00;99678.04;1801636;78;25847;-53
2023/12/10 02:41:16;;;;;;;60.95;27.70;;;;;;;-0.67;100.00;99678.83;1788130;78;25697;-53
2023/12/10 02:43:43;;;;;;;56.18;27.05;;;;;;;-0.68;100.00;99675.09;1780755;78;25742;-51
2023/12/10 02:46:10;;;;;;;55.75;26.57;;;;;;;-0.69;100.00;99680.15;1781068;79;25790;-55
2023/12/10 02:48:37;;;;;;;59.27;28.77;;;;;;;-0.69;100.00;99684.13;1780859;79;27391;-51
2023/12/10 02:51:04;;;;;;;60.17;27.85;;;;;;;-0.69;100.00;99680.15;1783079;78;25355;-52
2023/12/10 02:53:30;;;;;;;54.05;26.40;;;;;;;-0.69;100.00;99687.58;1784963;78;25518;-51
2023/12/10 02:56:00;;;;;;;57.00;27.05;;;;;;;-0.69;100.00;99677.49;1780436;79;25728;-55
2023/12/10 02:58:26;;;;;;;57.35;27.22;;;;;;;-0.69;100.00;99672.97;1778548;78;25570;-53
2023/12/10 03:00:55;;;;;;;55.35;28.10;;;;;;;-0.68;100.00;99661.81;1782925;78;26964;-51
2023/12/10 03:03:21;;;;;;;55.17;27.58;;;;;;;-0.68;100.00;99649.36;1776108;79;25731;-55
2023/12/10 03:05:48;;;;;;;56.08;27.67;;;;;;;-0.67;100.00;99649.61;1781914;78;25439;-52
2023/12/10 03:08:14;;;;;;;55.55;26.80;;;;;;;-0.68;100.00;99648.53;1779030;78;25411;-55
2023/12/10 03:10:41;;;;;;;56.55;28.30;;;;;;;-0.68;100.00;99649.36;1789885;77;25796;-51
2023/12/10 03:13:08;;;;;;;51.58;25.77;;;;;;;-0.70;100.00;99648.78;1782707;79;28236;-51
2023/12/10 03:15:34;;;;;;;54.18;26.02;;;;;;;-0.70;100.00;99651.97;1785038;79;25495;-52
2023/12/10 03:18:01;;;;;;;51.13;24.77;;;;;;;-0.70;100.00;99642.67;1786387;78;25510;-53
2023/12/10 03:20:27;;;;;;;51.65;26.10;;;;;;;-0.70;100.00;99640.81;1795086;78;25774;-52
2023/12/10 03:22:54;;;;;;;58.05;26.60;;;;;;;-0.70;100.00;99635.50;1781546;79;25440;-55
2023/12/10 03:25:20;;;;;;;53.08;26.15;;;;;;;-0.70;100.00;99634.17;1781587;79;27471;-52
2023/12/10 03:27:47;;;;;;;55.80;26.68;;;;;;;-0.71;100.00;99635.24;1784774;79;25418;-54
2023/12/10 03:30:13;;;;;;;49.80;25.15;;;;;;;-0.72;100.00;99624.33;1777064;78;25782;-53
2023/12/10 03:32:40;;;;;;;52.08;24.50;;;;;;;-0.71;100.00;99627.27;1781427;78;25462;-54
2023/12/10 03:35:08;;;;;;;51.73;24.85;;;;;;;-0.72;100.00;99620.34;1776446;78;25384;-55
2023/12/10 03:37:35;;;;;;;52.67;24.57;;;;;;;-0.71;100.00;99619.84;1790049;78;27541;-53
2023/12/10 03:40:01;;;;;;;60.05;27.52;;;;;;;-0.71;100.00;99631.26;1784994;78;25641;-54
2023/12/10 03:42:28;;;;;;;59.38;26.77;;;;;;;-0.72;100.00;99620.34;1781909;79;25612;-52
2023/12/10 03:44:57;;;;;;;56.75;27.17;;;;;;;-0.71;100.00;99623.83;1780970;79;25473;-52
2023/12/10 03:47:24;;;;;;;54.10;26.97;;;;;;;-0.72;100.00;99619.02;1782211;79;25447;-53
2023/12/10 03:49:50;;;;;;;59.20;27.98;;;;;;;-0.71;100.00;99615.33;1779813;79;27499;-52
2023/12/10 03:52:17;;;;;;;60.43;30.08;;;;;;;-0.73;100.00;99605.48;1775421;79;25621;-53
2023/12/10 03:54:43;;;;;;;58.28;28.75;;;;;;;-0.74;100.00;99597.23;1779682;79;25509;-52
2023/12/10 03:57:10;;;;;;;62.38;30.37;;;;;;;-0.76;100.00;99592.16;1784892;78;25669;-53
2023/12/10 03:59:37;;;;;;;63.20;30.02;;;;;;;-0.76;100.00;99589.50;1783993;78;25418;-53
2023/12/10 04:02:04;;;;;;;62.43;31.35;;;;;;;-0.78;99.96;99583.66;1786614;78;27468;-54
2023/12/10 04:04:31;;;;;;;57.25;28.02;;;;;;;-0.78;99.91;99584.19;1794481;78;25870;-52
2023/12/10 04:06:58;;;;;;;64.72;32.17;;;;;;;-0.78;99.95;99582.86;1784053;78;25435;-56
2023/12/10 04:09:25;;;;;;;62.03;30.80;;;;;;;-0.80;99.92;99576.47;1781850;79;25390;-52
2023/12/10 04:11:51;;;;;;;62.65;31.25;;;;;;;-0.80;99.84;99569.83;1794413;78;25783;-54
2023/12/10 04:14:18;;;;;;;67.37;31.27;;;;;;;-0.80;99.84;99577.80;1789410;78;27492;-53
2023/12/10 04:16:45;;;;;;;63.33;31.00;;;;;;;-0.79;99.78;99573.27;1780275;79;25460;-56
2023/12/10 04:19:11;;;;;;;71.70;32.55;;;;;;;-0.80;99.69;99577.80;1781869;78;25435;-53
2023/12/10 04:21:38;;;;;;;64.32;31.30;;;;;;;-0.81;99.63;99577.51;1775451;79;25780;-56
2023/12/10 04:24:06;;;;;;;65.83;32.40;;;;;;;-0.83;99.45;99580.16;1780406;79;25411;-53
2023/12/10 04:26:33;;;;;;;62.48;30.50;;;;;;;-0.85;99.23;99588.87;1783595;79;27478;-53
2023/12/10 04:29:00;;;;;;;63.15;30.05;;;;;;;-0.90;98.98;99601.59;1783066;78;25827;-52
2023/12/10 04:31:26;;;;;;;69.70;31.70;;;;;;;-0.92;99.01;99610.31;1790822;78;25681;-56
2023/12/10 04:33:53;;;;;;;57.58;29.90;;;;;;;-0.92;98.98;99606.86;1784908;78;25637;-52
2023/12/10 04:36:20;;;;;;;66.37;30.00;;;;;;;-0.95;98.94;99616.14;1794127;78;25601;-56
2023/12/10 04:38:46;;;;;;;65.67;30.48;;;;;;;-0.98;98.81;99616.09;1780043;77;27366;-56
2023/12/10 04:41:13;;;;;;;66.70;30.95;;;;;;;-1.01;98.63;99617.12;1784119;78;25668;-53
2023/12/10 04:43:40;;;;;;;64.42;30.32;;;;;;;-1.05;98.57;99615.50;1787274;78;25442;-52
2023/12/10 04:46:07;;;;;;;60.05;29.07;;;;;;;-1.05;98.75;99621.34;1788064;78;25598;-52
2023/12/10 04:48:34;;;;;;;63.95;30.55;;;;;;;-1.07;98.65;99634.86;1778802;79;25754;-55
2023/12/10 04:51:01;;;;;;;61.70;29.67;;;;;;;-1.10;98.50;99627.38;1781354;79;27466;-52
2023/12/10 04:53:27;;;;;;;67.12;30.40;;;;;;;-1.14;98.28;99624.42;1778671;78;25731;-52
2023/12/10 04:55:54;;;;;;;64.67;29.75;;;;;;;-1.18;98.21;99628.61;1785146;78;25545;-52
2023/12/10 04:58:20;;;;;;;63.70;29.27;;;;;;;-1.23;98.34;99626.42;1776816;78;25971;-55
2023/12/10 05:00:47;;;;;;;62.65;30.08;;;;;;;-1.23;98.36;99627.75;1789643;78;25375;-51
2023/12/10 05:03:14;;;;;;;61.05;29.52;;;;;;;-1.25;98.44;99628.53;1784381;78;26867;-51
2023/12/10 05:05:40;;;;;;;64.97;29.92;;;;;;;-1.29;98.08;99620.77;1776281;79;25858;-51
2023/12/10 05:08:07;;;;;;;62.88;28.67;;;;;;;-1.34;97.92;99624.18;1782606;79;25668;-51
2023/12/10 05:10:33;;;;;;;61.80;27.87;;;;;;;-1.41;97.84;99627.55;1782969;78;25594;-51
2023/12/10 05:13:00;;;;;;;64.62;29.98;;;;;;;-1.46;97.91;99626.95;1788355;78;25387;-53
2023/12/10 05:15:27;;;;;;;63.50;30.20;;;;;;;-1.46;98.15;99631.43;1781418;78;28096;-53
2023/12/10 05:17:54;;;;;;;64.50;29.45;;;;;;;-1.49;98.23;99622.13;1782525;79;25458;-52
2023/12/10 05:20:20;;;;;;;68.62;29.95;;;;;;;-1.51;98.21;99625.55;1781182;79;25454;-52
2023/12/10 05:22:47;;;;;;;74.27;32.40;;;;;;;-1.55;98.21;99613.31;1781333;79;25819;-52
2023/12/10 05:25:14;;;;;;;66.47;29.80;;;;;;;-1.56;98.25;99613.55;1784682;78;25811;-52
2023/12/10 05:27:41;;;;;;;64.85;28.15;;;;;;;-1.59;98.25;99617.48;1785045;78;27418;-53
2023/12/10 05:30:08;;;;;;;62.48;29.55;;;;;;;-1.61;98.26;99630.19;1780358;79;25458;-51
2023/12/10 05:32:35;;;;;;;65.05;29.50;;;;;;;-1.62;98.31;99639.72;1784639;79;25787;-49
2023/12/10 05:35:02;;;;;;;66.25;28.80;;;;;;;-1.64;98.35;99636.51;1787314;78;25658;-52
2023/12/10 05:37:29;;;;;;;64.05;27.58;;;;;;;-1.66;98.31;99628.00;1780772;78;25438;-51
2023/12/10 05:39:56;;;;;;;63.02;28.95;;;;;;;-1.70;98.32;99636.44;1786416;79;27478;-51
2023/12/10 05:42:23;;;;;;;60.98;27.87;;;;;;;-1.71;98.41;99632.17;1780351;79;25831;-51
2023/12/10 05:44:50;;;;;;;59.03;26.70;;;;;;;-1.74;98.40;99636.66;1789113;78;25380;-52
2023/12/10 05:47:16;;;;;;;58.15;25.55;;;;;;;-1.74;98.43;99646.44;1786415;78;25566;-54
2023/12/10 05:49:44;;;;;;;62.60;27.85;;;;;;;-1.76;98.50;99636.61;1785621;78;25845;-51
2023/12/10 05:52:10;;;;;;;56.65;26.75;;;;;;;-1.79;98.54;99631.25;1780192;78;27471;-52
2023/12/10 05:54:37;;;;;;;60.55;26.65;;;;;;;-1.79;98.65;99639.20;1781381;78;25401;-54
2023/12/10 05:57:05;;;;;;;65.95;29.40;;;;;;;-1.80;98.75;99634.97;1783956;78;25361;-51
2023/12/10 05:59:32;;;;;;;58.48;27.82;;;;;;;-1.80;98.88;99633.64;1787383;78;25878;-54
2023/12/10 06:01:58;;;;;;;64.35;29.20;;;;;;;-1.82;98.81;99641.55;1780101;78;25378;-54
2023/12/10 06:04:25;;;;;;;65.52;28.55;;;;;;;-1.82;98.89;99645.02;1771971;79;27573;-53
2023/12/10 06:06:52;;;;;;;68.33;29.82;;;;;;;-1.79;98.93;99654.32;1789151;78;27339;-54
2023/12/10 06:09:18;;;;;;;68.67;29.12;;;;;;;-1.81;98.91;99661.19;1777376;78;25811;-51
2023/12/10 06:11:45;;;;;;;74.05;30.92;;;;;;;-1.81;98.92;99657.74;1784366;78;25535;-52
2023/12/10 06:14:12;;;;;;;65.35;29.07;;;;;;;-1.82;99.00;99668.88;1788341;78;25589;-52
2023/12/10 06:16:38;;;;;;;75.50;30.48;;;;;;;-1.81;99.06;99673.13;1783658;78;27462;-51
2023/12/10 06:19:05;;;;;;;65.57;29.75;;;;;;;-1.81;98.97;99673.66;1784869;79;25634;-51
2023/12/10 06:21:33;;;;;;;68.33;29.35;;;;;;;-1.81;99.01;99669.67;1784484;79;25420;-55
2023/12/10 06:24:00;;;;;;;69.58;29.92;;;;;;;-1.83;98.96;99672.56;1777110;79;27715;-53
2023/12/10 06:26:27;;;;;;;73.17;31.05;;;;;;;-1.83;99.08;99669.91;1787163;78;25796;-52
2023/12/10 06:28:53;;;;;;;67.80;30.23;;;;;;;-1.83;99.08;99685.82;1778325;78;27487;-53
2023/12/10 06:31:20;;;;;;;69.70;30.50;;;;;;;-1.81;99.21;99696.98;1778221;79;25484;-52
2023/12/10 06:33:47;;;;;;;68.37;30.23;;;;;;;-1.83;99.14;99696.42;1778800;79;25605;-52
2023/12/10 06:36:14;;;;;;;71.28;30.12;;;;;;;-1.81;99.13;99696.98;1785658;79;26228;-52
2023/12/10 06:38:41;;;;;;;64.77;29.85;;;;;;;-1.82;99.08;99703.34;1785059;78;25403;-55
2023/12/10 06:41:07;;;;;;;71.97;31.05;;;;;;;-1.82;99.15;99698.55;1781830;78;27472;-52
2023/12/10 06:43:34;;;;;;;64.10;28.30;;;;;;;-1.79;99.17;99699.39;1776732;78;25836;-53
2023/12/10 06:46:01;;;;;;;64.25;29.23;;;;;;;-1.80;99.18;99695.95;1782588;79;25468;-55
2023/12/10 06:48:28;;;;;;;65.92;29.57;;;;;;;-1.78;99.22;99698.36;1783806;78;25845;-56
2023/12/10 06:50:55;;;;;;;61.90;29.23;;;;;;;-1.76;99.20;99704.22;1784022;79;25523;-55
2023/12/10 06:53:22;;;;;;;62.80;28.70;;;;;;;-1.76;99.14;99708.99;1782366;78;27514;-56
2023/12/10 06:55:49;;;;;;;65.15;29.87;;;;;;;-1.74;99.19;99707.43;1783934;79;25592;-52
2023/12/10 06:58:15;;;;;;;59.88;28.15;;;;;;;-1.72;99.04;99704.83;1789681;78;25412;-53
2023/12/10 07:00:42;;;;;;;66.80;28.70;;;;;;;-1.72;98.99;99703.51;1792037;78;25821;-53
2023/12/10 07:03:09;;;;;;;63.68;28.20;;;;;;;-1.68;98.93;99698.52;1783510;79;25628;-53
2023/12/10 07:05:36;;;;;;;61.48;28.73;;;;;;;-1.68;98.61;99689.77;1785100;79;28450;-55
2023/12/10 07:08:03;;;;;;;63.60;28.77;;;;;;;-1.71;98.27;99687.86;1780315;78;25749;-56
2023/12/10 07:10:30;;;;;;;66.57;28.67;;;;;;;-1.70;98.17;99685.50;1780391;78;25681;-54
2023/12/10 07:12:58;;;;;;;64.65;28.10;;;;;;;-1.73;97.89;99684.66;1790472;78;25504;-52
2023/12/10 07:15:24;;;;;;;63.38;26.85;;;;;;;-1.74;97.86;99690.20;1782822;78;25566;-54
2023/12/10 07:17:52;;;;;;;64.67;27.80;;;;;;;-1.74;97.82;99699.48;1783283;78;27484;-52
2023/12/10 07:20:18;;;;;;;62.00;28.40;;;;;;;-1.73;97.86;99709.05;1783840;79;25658;-50
2023/12/10 07:22:45;;;;;;;59.53;27.48;;;;;;;-1.74;97.83;99706.10;1781753;79;25391;-51
2023/12/10 07:25:12;;;;;;;64.55;28.42;;;;;;;-1.76;97.50;99701.57;1772431;79;26785;-54
2023/12/10 07:27:39;;;;;;;61.42;26.62;;;;;;;-1.76;97.23;99713.50;1795485;79;25768;-51
2023/12/10 07:30:07;;;;;;;57.27;26.15;;;;;;;-1.78;97.43;99711.09;1791741;79;29593;-54
2023/12/10 07:32:34;;;;;;;59.27;26.23;;;;;;;-1.75;97.47;99717.77;1787790;79;25845;-53
2023/12/10 07:35:01;;;;;;;64.72;28.42;;;;;;;-1.76;97.25;99708.20;1783617;79;25798;-50
2023/12/10 07:37:28;;;;;;;59.50;26.05;;;;;;;-1.75;97.02;99723.08;1787601;79;26163;-51
2023/12/10 07:39:55;;;;;;;59.33;27.27;;;;;;;-1.76;96.99;99724.11;1785330;79;25379;-52
2023/12/10 07:42:22;;;;;;;65.47;27.73;;;;;;;-1.77;96.96;99720.66;1783745;79;27526;-52
2023/12/10 07:44:49;;;;;;;61.80;28.15;;;;;;;-1.75;96.97;99725.73;1783742;79;25869;-52
2023/12/10 07:47:16;;;;;;;58.17;27.00;;;;;;;-1.76;96.82;99717.48;1790190;79;25430;-52
2023/12/10 07:49:43;;;;;;;60.83;26.48;;;;;;;-1.75;96.99;99714.59;1786511;79;25383;-53
2023/12/10 07:52:10;;;;;;;56.85;25.65;;;;;;;-1.70;97.37;99721.30;1792513;79;25413;-54
2023/12/10 07:54:38;;;;;;;66.90;27.80;;;;;;;-1.65;97.17;99722.41;1783633;79;27833;-52
2023/12/10 07:57:05;;;;;;;62.90;29.12;;;;;;;-1.65;96.69;99714.45;1774887;79;25742;-52
2023/12/10 07:59:32;;;;;;;61.98;25.70;;;;;;;-1.64;96.55;99714.22;1788658;79;25534;-50
2023/12/10 08:01:58;;;;;;;64.15;27.62;;;;;;;-1.66;95.89;99712.33;1785071;79;25674;-51
2023/12/10 08:04:25;;;;;;;67.40;27.62;;;;;;;-1.71;95.70;99711.72;1783852;79;25403;-50
2023/12/10 08:06:52;;;;;;;63.38;27.65;;;;;;;-1.70;95.93;99722.62;1794323;79;28229;-50
2023/12/10 08:09:19;;;;;;;62.53;28.07;;;;;;;-1.72;95.51;99720.74;1778676;79;25796;-50
2023/12/10 08:11:45;;;;;;;64.60;28.23;;;;;;;-1.72;95.43;99730.52;1783160;79;25657;-52
2023/12/10 08:14:12;;;;;;;59.88;27.32;;;;;;;-1.73;95.05;99735.56;1781316;79;25544;-52
2023/12/10 08:16:38;;;;;;;58.75;26.17;;;;;;;-1.74;95.40;99731.30;1802467;79;25572;-55
2023/12/10 08:19:05;;;;;;;54.93;25.52;;;;;;;-1.72;95.38;99729.20;1789399;79;27482;-52
2023/12/10 08:21:32;;;;;;;62.53;28.70;;;;;;;-1.73;95.29;99732.91;1789209;79;25779;-53
2023/12/10 08:23:58;;;;;;;59.30;27.13;;;;;;;-1.71;95.23;99736.91;1795750;79;25572;-50
2023/12/10 08:26:25;;;;;;;60.58;26.77;;;;;;;-1.71;95.09;99746.73;1776983;79;25717;-52
2023/12/10 08:28:52;;;;;;;58.38;26.10;;;;;;;-1.73;94.77;99754.12;1781187;79;25698;-52
2023/12/10 08:31:19;;;;;;;64.80;28.00;;;;;;;-1.77;94.53;99756.45;1795296;79;28125;-52
2023/12/10 08:33:46;;;;;;;55.25;25.08;;;;;;;-1.78;94.43;99764.13;1786828;79;25586;-53
2023/12/10 08:36:13;;;;;;;58.55;27.70;;;;;;;-1.78;94.77;99759.34;1774920;79;25767;-53
2023/12/10 08:38:40;;;;;;;62.25;27.77;;;;;;;-1.78;94.46;99759.34;1788120;79;26197;-51
2023/12/10 08:41:08;;;;;;;63.40;28.30;;;;;;;-1.77;94.59;99763.59;1776064;79;25422;-54
2023/12/10 08:43:35;;;;;;;63.55;26.35;;;;;;;-1.76;94.94;99758.05;1792454;79;27502;-52
2023/12/10 08:46:02;;;;;;;60.65;27.42;;;;;;;-1.74;94.74;99752.51;1781213;79;25722;-51
2023/12/10 08:48:30;;;;;;;62.95;27.05;;;;;;;-1.75;94.28;99744.29;1788284;79;25596;-54
2023/12/10 08:50:57;;;;;;;65.50;28.12;;;;;;;-1.76;94.21;99746.12;1783732;79;25482;-53
2023/12/10 08:53:24;;;;;;;61.83;26.55;;;;;;;-1.76;94.31;99741.34;1797105;79;25796;-52
2023/12/10 08:55:51;;;;;;;64.65;27.02;;;;;;;-1.72;94.66;99743.28;1782836;79;27467;-53
2023/12/10 08:58:17;;;;;;;62.05;28.15;;;;;;;-1.65;94.97;99740.47;1787405;78;25362;-51
2023/12/10 09:00:44;;;;;;;66.30;27.58;;;;;;;-1.59;94.96;99737.37;1781315;79;25696;-50
2023/12/10 09:03:10;;;;;;;59.35;26.80;;;;;;;-1.57;94.30;99728.64;1789110;79;25705;-52
2023/12/10 09:05:37;;;;;;;62.33;26.12;;;;;;;-1.57;94.18;99728.64;1781554;79;25426;-52
2023/12/10 09:08:06;;;;;;;63.00;28.12;;;;;;;-1.49;94.83;99736.73;1789480;79;28166;-51
2023/12/10 09:10:33;;;;;;;65.97;28.05;;;;;;;-1.41;95.03;99735.78;1787064;79;25451;-53
2023/12/10 09:13:00;;;;;;;56.92;26.20;;;;;;;-1.37;93.81;99728.94;1791580;79;25458;-55
2023/12/10 09:15:27;;;;;;;62.15;28.47;;;;;;;-1.37;94.10;99724.95;1781527;79;26480;-51
2023/12/10 09:17:53;;;;;;;61.20;27.35;;;;;;;-1.30;94.23;99723.99;1778323;79;25874;-55
2023/12/10 09:20:20;;;;;;;64.47;28.10;;;;;;;-1.22;94.71;99717.73;1799099;79;28021;-50
2023/12/10 09:22:46;;;;;;;62.35;27.58;;;;;;;-1.08;94.99;99720.84;1797240;79;25366;-51
2023/12/10 09:25:13;;;;;;;60.55;27.45;;;;;;;-0.97;94.29;99719.93;1787506;79;25542;-52
2023/12/10 09:27:40;;;;;;;57.27;27.93;;;;;;;-0.88;94.32;99724.81;1796618;79;26001;-51
2023/12/10 09:30:09;;;;;;;61.20;27.05;;;;;;;-0.83;93.58;99746.12;1792518;79;25537;-53
2023/12/10 09:32:35;;;;;;;59.08;26.48;;;;;;;-0.84;93.33;99750.61;1784095;79;32850;-52
2023/12/10 09:35:04;;;;;;;64.32;26.97;;;;;;;-0.86;92.74;99738.64;1783076;79;25840;-51
2023/12/10 09:37:31;;;;;;;57.20;26.77;;;;;;;-0.85;93.02;99729.11;1783994;79;25389;-52
2023/12/10 09:39:57;;;;;;;63.52;28.65;;;;;;;-0.84;92.69;99742.64;1792626;79;25591;-53
2023/12/10 09:42:24;;;;;;;61.08;27.93;;;;;;;-0.85;92.43;99730.44;1786256;79;25794;-52
2023/12/10 09:44:50;;;;;;;55.90;26.73;;;;;;;-0.84;92.63;99725.38;1790088;79;27503;-52
2023/12/10 09:47:19;;;;;;;60.80;27.42;;;;;;;-0.86;92.13;99720.85;1791495;79;25430;-52
2023/12/10 09:49:48;;;;;;;55.17;26.15;;;;;;;-0.84;92.43;99713.97;1803693;79;25525;-52
2023/12/10 09:52:15;;;;;;;61.77;27.62;;;;;;;-0.81;92.27;99721.44;1780423;79;25713;-53
2023/12/10 09:54:41;;;;;;;60.40;28.02;;;;;;;-0.76;92.64;99714.33;1790176;79;25373;-54
2023/12/10 09:57:11;;;;;;;65.40;28.05;;;;;;;-0.65;93.52;99705.94;1790096;79;27484;-56
2023/12/10 09:59:37;;;;;;;56.20;28.33;;;;;;;-0.49;93.99;99706.93;1780964;79;25840;-54
2023/12/10 10:02:07;;;;;;;63.52;27.52;;;;;;;-0.39;93.22;99719.53;1783678;79;25771;-51
2023/12/10 10:04:34;;;;;;;54.30;26.15;;;;;;;-0.43;92.30;99708.56;1791248;79;25598;-52
2023/12/10 10:07:05;;;;;;;58.42;27.27;;;;;;;-0.43;91.76;99729.83;1791479;79;25828;-54
2023/12/10 10:09:37;;;;;;;62.55;26.40;;;;;;;-0.43;92.33;99727.17;1797535;79;27565;-52
2023/12/10 10:12:04;;;;;;;61.68;28.55;;;;;;;-0.37;91.92;99721.41;1786483;79;25786;-52
2023/12/10 10:14:31;;;;;;;58.50;27.70;;;;;;;-0.35;92.14;99712.64;1784798;79;25691;-53
2023/12/10 10:16:58;;;;;;;59.08;26.65;;;;;;;-0.30;91.90;99711.37;1789602;79;25550;-56
2023/12/10 10:19:26;;;;;;;60.83;27.48;;;;;;;-0.33;91.33;99710.53;1783643;79;25506;-51
2023/12/10 10:21:54;;;;;;;61.65;28.32;;;;;;;-0.34;91.34;99718.25;1795120;79;27460;-54
2023/12/10 10:24:21;;;;;;;55.30;26.77;;;;;;;-0.35;91.06;99708.66;1785306;79;25656;-53
2023/12/10 10:26:48;;;;;;;56.45;28.38;;;;;;;-0.33;91.69;99711.86;1796234;79;25536;-54
2023/12/10 10:29:14;;;;;;;55.70;28.07;;;;;;;-0.28;91.87;99713.24;1780882;79;27656;-54
2023/12/10 10:31:41;;;;;;;59.33;28.05;;;;;;;-0.29;91.12;99713.48;1783930;79;25387;-52
2023/12/10 10:34:08;;;;;;;58.90;26.60;;;;;;;-0.26;91.67;99711.66;1790088;79;27463;-53
2023/12/10 10:36:37;;;;;;;57.75;26.45;;;;;;;-0.21;91.78;99711.71;1792656;79;25808;-54
2023/12/10 10:39:04;;;;;;;58.85;27.48;;;;;;;-0.18;91.74;99707.77;1799078;79;25705;-52
2023/12/10 10:41:32;;;;;;;59.58;28.52;;;;;;;-0.18;91.09;99700.58;1792856;79;25529;-55
2023/12/10 10:43:59;;;;;;;58.30;27.82;;;;;;;-0.21;90.82;99703.20;1782969;79;25887;-52
2023/12/10 10:46:27;;;;;;;57.35;28.20;;;;;;;-0.24;91.04;99701.07;1800365;79;27602;-53
2023/12/10 10:48:56;;;;;;;56.77;27.15;;;;;;;-0.21;91.30;99699.75;1776356;79;25650;-52
2023/12/10 10:51:26;;;;;;;58.17;26.93;;;;;;;-0.18;91.30;99691.28;1787237;79;25712;-51
2023/12/10 10:54:03;;;;;;;58.17;27.40;;;;;;;-0.16;91.77;99682.52;1799512;79;26384;-55
2023/12/10 10:56:26;;;;;;;54.05;26.45;;;;;;;-0.13;91.66;99682.02;1794438;79;25362;-54
2023/12/10 10:58:52;;;;;;;57.75;27.98;;;;;;;-0.11;91.61;99677.25;1789812;79;28071;-52
2023/12/10 11:01:42;;;;;;;54.65;26.50;;;;;;;-0.09;91.49;99683.64;1775463;79;25437;-53
2023/12/10 11:04:18;;;;;;;50.23;25.57;;;;;;;-0.07;91.70;99680.20;1795133;79;25448;-53
2023/12/10 11:06:47;;;;;;;59.38;27.67;;;;;;;0.00;91.63;99680.81;1780167;79;25703;-51
2023/12/10 11:09:13;;;;;;;55.30;26.40;;;;;;;0.04;91.35;99677.91;1798511;79;25443;-51
2023/12/10 11:11:41;;;;;;;52.62;26.02;;;;;;;0.11;91.69;99675.03;1790407;79;27559;-52
2023/12/10 11:14:22;;;;;;;56.58;27.10;;;;;;;0.18;92.08;99672.41;1789104;79;25834;-52
2023/12/10 11:17:05;;;;;;;58.92;28.27;;;;;;;0.29;91.97;99678.63;1786196;79;25890;-53
2023/12/10 11:19:33;;;;;;;52.00;25.40;;;;;;;0.35;91.69;99685.56;1783473;79;25795;-52
2023/12/10 11:22:01;;;;;;;54.42;27.13;;;;;;;0.38;91.15;99686.14;1800618;79;25738;-52
2023/12/10 11:24:28;;;;;;;53.48;25.05;;;;;;;0.40;91.17;99686.68;1786477;79;28183;-55
2023/12/10 11:26:55;;;;;;;52.27;27.17;;;;;;;0.44;90.39;99702.39;1800330;79;25785;-54
2023/12/10 11:29:22;;;;;;;56.20;27.25;;;;;;;0.46;90.86;99701.59;1790080;79;25370;-55
2023/12/10 11:31:50;;;;;;;53.70;26.27;;;;;;;0.44;90.32;99687.75;1783764;78;26157;-55
2023/12/10 11:34:17;;;;;;;54.10;27.10;;;;;;;0.42;90.32;99693.33;1803866;79;25455;-54
2023/12/10 11:36:49;;;;;;;52.13;26.23;;;;;;;0.38;89.34;99696.24;1793615;79;28071;-56
2023/12/10 11:39:16;;;;;;;52.90;26.40;;;;;;;0.35;89.78;99699.41;1791351;79;25379;-55
2023/12/10 11:41:44;;;;;;;51.37;25.35;;;;;;;0.31;90.09;99699.13;1798435;79;26437;-52
2023/12/10 11:44:11;;;;;;;57.58;26.73;;;;;;;0.34;90.43;99709.77;1786368;79;25720;-53
2023/12/10 11:46:38;;;;;;;56.40;26.55;;;;;;;0.31;89.99;99711.63;1796490;79;25425;-52
2023/12/10 11:49:08;;;;;;;47.78;24.55;;;;;;;0.29;90.10;99717.71;1778884;79;29679;-54
2023/12/10 11:51:38;;;;;;;51.23;26.33;;;;;;;0.29;90.44;99715.05;1795981;79;25797;-57
2023/12/10 11:54:06;;;;;;;51.70;26.15;;;;;;;0.28;90.07;99714.25;1794711;79;25580;-53